createdAt,value
2018-05-04T00:03:08.945Z,4.5
2018-05-04T00:08:08.942Z,4.5
2018-05-04T00:13:09.000Z,4.3
2018-05-04T00:18:09.265Z,4.3
2018-05-04T00:23:08.919Z,4.1
2018-05-04T00:28:09.175Z,4.1
2018-05-04T00:33:08.680Z,4
2018-05-04T00:38:08.729Z,4
2018-05-04T00:43:08.839Z,3.8
2018-05-04T00:48:08.826Z,3.8
2018-05-04T00:53:08.897Z,3.7
2018-05-04T00:58:09.356Z,3.7
2018-05-04T01:03:08.703Z,3.6
2018-05-04T01:08:08.969Z,3.6
2018-05-04T01:13:08.431Z,3.4
2018-05-04T01:18:08.973Z,3.4
2018-05-04T01:23:09.098Z,3.3
2018-05-04T01:28:09.639Z,3.3
2018-05-04T01:33:08.861Z,3.2
2018-05-04T01:38:09.239Z,3.2
2018-05-04T01:43:09.429Z,3.1
2018-05-04T01:48:09.188Z,3.1
2018-05-04T01:53:09.087Z,2.9
2018-05-04T01:58:09.300Z,2.9
2018-05-04T02:03:08.667Z,2.8
2018-05-04T02:08:09.435Z,2.8
2018-05-04T02:13:08.778Z,2.7
2018-05-04T02:18:09.164Z,2.7
2018-05-04T02:23:08.603Z,2.7
2018-05-04T02:28:09.109Z,2.7
2018-05-04T02:33:09.500Z,2.6
2018-05-04T02:38:08.778Z,2.6
2018-05-04T02:43:09.008Z,2.4
2018-05-04T02:48:09.175Z,2.4
2018-05-04T02:53:09.444Z,2.3
2018-05-04T02:58:08.714Z,2.3
2018-05-04T03:03:09.259Z,2.2
2018-05-04T03:08:08.928Z,2.2
2018-05-04T03:13:09.418Z,2.2
2018-05-04T03:18:08.779Z,2.2
2018-05-04T03:23:09.114Z,2.1
2018-05-04T03:28:09.431Z,2.1
2018-05-04T03:33:08.844Z,1.9
2018-05-04T03:38:09.132Z,1.9
2018-05-04T03:43:09.582Z,1.9
2018-05-04T03:48:08.972Z,1.9
2018-05-04T03:53:09.307Z,1.8
2018-05-04T03:58:09.572Z,1.8
2018-05-04T04:03:08.998Z,1.8
2018-05-04T04:08:09.248Z,1.8
2018-05-04T04:13:09.457Z,1.7
2018-05-04T04:18:08.772Z,1.7
2018-05-04T04:23:09.053Z,1.7
2018-05-04T04:28:09.532Z,1.7
2018-05-04T04:33:08.839Z,1.7
2018-05-04T04:38:08.626Z,1.7
2018-05-04T04:43:08.963Z,1.7
2018-05-04T04:48:09.388Z,1.7
2018-05-04T04:53:09.634Z,1.8
2018-05-04T04:58:08.853Z,1.8
2018-05-04T05:03:09.175Z,2
2018-05-04T05:08:09.274Z,2
2018-05-04T05:13:09.582Z,2.2
2018-05-04T05:18:08.927Z,2.2
2018-05-04T05:23:09.174Z,2.4
2018-05-04T05:28:09.532Z,2.4
2018-05-04T05:33:08.999Z,2.9
2018-05-04T05:38:09.303Z,2.9
2018-05-04T05:43:09.565Z,3.3
2018-05-04T05:48:09.024Z,3.3
2018-05-04T05:53:09.298Z,3.9
2018-05-04T05:58:09.616Z,3.9
2018-05-04T06:03:09.104Z,4.6
2018-05-04T06:08:09.290Z,4.6
2018-05-04T06:13:09.489Z,5.1
2018-05-04T06:18:09.194Z,5.1
2018-05-04T06:23:09.494Z,5.8
2018-05-04T06:28:09.864Z,5.8
2018-05-04T06:33:09.088Z,6.7
2018-05-04T06:38:09.342Z,6.7
2018-05-04T06:43:09.506Z,7.5
2018-05-04T06:48:09.763Z,7.5
2018-05-04T06:53:09.005Z,8.2
2018-05-04T06:58:09.423Z,8.2
2018-05-04T07:03:08.976Z,9
2018-05-04T07:08:09.437Z,9
2018-05-04T07:13:09.760Z,9.9
2018-05-04T07:18:09.072Z,9.9
2018-05-04T07:23:09.291Z,11.1
2018-05-04T07:28:09.647Z,11.1
2018-05-04T07:33:09.099Z,11.9
2018-05-04T07:38:09.340Z,11.9
2018-05-04T07:43:09.978Z,12.4
2018-05-04T07:48:09.427Z,12.4
2018-05-04T07:53:09.783Z,12.8
2018-05-04T07:58:09.098Z,12.8
2018-05-04T08:03:09.641Z,13.2
2018-05-04T08:08:09.836Z,13.2
2018-05-04T08:13:09.233Z,13.1
2018-05-04T08:18:09.583Z,13.1
2018-05-04T08:23:09.768Z,13.6
2018-05-04T08:28:08.990Z,13.6
2018-05-04T08:33:09.250Z,13.7
2018-05-04T08:38:09.672Z,13.7
2018-05-04T08:43:09.037Z,13.6
2018-05-04T08:48:09.442Z,13.6
2018-05-04T08:53:09.828Z,13.4
2018-05-04T08:58:09.203Z,13.4
2018-05-04T09:03:10.142Z,13.4
2018-05-04T09:08:09.403Z,13.4
2018-05-04T09:13:09.684Z,13.3
2018-05-04T09:18:09.003Z,13.3
2018-05-04T09:23:09.244Z,13.8
2018-05-04T09:28:09.506Z,13.8
2018-05-04T09:33:09.930Z,14.6
2018-05-04T09:38:09.284Z,14.6
2018-05-04T09:43:09.503Z,15
2018-05-04T09:48:09.836Z,15
2018-05-04T09:53:09.197Z,15.3
2018-05-04T09:58:09.493Z,15.3
2018-05-04T10:03:10.034Z,15.6
2018-05-04T10:08:09.534Z,15.6
2018-05-04T10:13:10.006Z,16.4
2018-05-04T10:18:09.369Z,16.4
2018-05-04T10:23:09.292Z,15.8
2018-05-04T10:28:09.585Z,15.8
2018-05-04T10:33:09.810Z,16.1
2018-05-04T10:38:09.165Z,16.1
2018-05-04T10:43:09.284Z,16.5
2018-05-04T10:48:09.618Z,16.5
2018-05-04T10:53:09.962Z,16.8
2018-05-04T10:58:09.368Z,16.8
2018-05-04T11:03:09.772Z,16.7
2018-05-04T11:08:09.192Z,16.7
2018-05-04T11:13:09.558Z,17.2
2018-05-04T11:18:09.133Z,17.2
2018-05-04T11:23:09.488Z,17.1
2018-05-04T11:28:09.797Z,17.1
2018-05-04T11:33:10.182Z,17.1
2018-05-04T11:38:09.773Z,17.1
2018-05-04T11:43:09.265Z,17
2018-05-04T11:48:09.596Z,17
2018-05-04T11:53:10.116Z,17.3
2018-05-04T11:58:09.447Z,17.3
2018-05-04T12:03:09.859Z,17.2
2018-05-04T12:08:09.262Z,17.2
2018-05-04T12:13:09.414Z,17.2
2018-05-04T12:18:09.722Z,17.2
2018-05-04T12:23:10.062Z,17.3
2018-05-04T12:28:09.340Z,17.3
2018-05-04T12:33:09.727Z,17.6
2018-05-04T12:38:09.287Z,17.6
2018-05-04T12:43:09.602Z,17.4
2018-05-04T12:48:10.013Z,17.4
2018-05-04T12:53:09.419Z,17.8
2018-05-04T12:58:09.796Z,17.8
2018-05-04T13:03:09.414Z,17.9
2018-05-04T13:08:09.947Z,17.9
2018-05-04T13:13:09.505Z,18.2
2018-05-04T13:18:09.972Z,18.2
2018-05-04T13:23:09.306Z,18.1
2018-05-04T13:28:09.655Z,18.1
2018-05-04T13:33:10.226Z,18.1
2018-05-04T13:38:09.466Z,18.1
2018-05-04T13:43:09.728Z,17.9
2018-05-04T13:48:10.304Z,17.9
2018-05-04T13:53:09.609Z,18
2018-05-04T13:58:09.813Z,18
2018-05-04T14:03:10.225Z,17.8
2018-05-04T14:08:10.160Z,17.8
2018-05-04T14:13:10.293Z,18.2
2018-05-04T14:18:09.590Z,18.2
2018-05-04T14:23:09.987Z,17.8
2018-05-04T14:28:10.273Z,17.8
2018-05-04T14:33:09.563Z,17.8
2018-05-04T14:38:09.869Z,17.8
2018-05-04T14:43:10.244Z,17.7
2018-05-04T14:48:09.659Z,17.7
2018-05-04T14:53:09.986Z,17.7
2018-05-04T14:58:10.252Z,17.7
2018-05-04T15:03:09.695Z,17.7
2018-05-04T15:08:10.175Z,17.7
2018-05-04T15:13:09.816Z,17.6
2018-05-04T15:18:09.448Z,17.6
2018-05-04T15:23:09.722Z,17.7
2018-05-04T15:28:09.903Z,17.7
2018-05-04T15:33:10.560Z,17.7
2018-05-04T15:38:10.025Z,17.7
2018-05-04T15:43:09.491Z,17.6
2018-05-04T15:48:09.786Z,17.6
2018-05-04T15:53:09.955Z,17.4
2018-05-04T15:58:10.343Z,17.4
2018-05-04T16:03:09.905Z,17.4
2018-05-04T16:08:09.580Z,17.4
2018-05-04T16:13:10.265Z,17.3
2018-05-04T16:18:09.654Z,17.3
2018-05-04T16:23:09.993Z,17.3
2018-05-04T16:28:10.401Z,17.3
2018-05-04T16:33:09.930Z,17.2
2018-05-04T16:38:10.316Z,17.2
2018-05-04T16:43:09.661Z,17.1
2018-05-04T16:48:10.011Z,17.1
2018-05-04T16:53:10.203Z,16.8
2018-05-04T16:58:09.570Z,16.8
2018-05-04T17:03:10.101Z,16.4
2018-05-04T17:08:09.602Z,16.4
2018-05-04T17:13:09.563Z,15.9
2018-05-04T17:18:09.937Z,15.9
2018-05-04T17:23:10.270Z,15.6
2018-05-04T17:28:09.541Z,15.6
2018-05-04T17:33:09.829Z,15.3
2018-05-04T17:38:10.230Z,15.3
2018-05-04T17:43:09.612Z,15
2018-05-04T17:48:09.863Z,15
2018-05-04T17:53:10.240Z,14.8
2018-05-04T17:58:09.555Z,14.8
2018-05-04T18:03:09.915Z,14.4
2018-05-04T18:08:10.399Z,14.4
2018-05-04T18:13:09.920Z,14.2
2018-05-04T18:18:10.423Z,14.2
2018-05-04T18:23:09.755Z,13.8
2018-05-04T18:28:10.074Z,13.8
2018-05-04T18:33:10.602Z,13.6
2018-05-04T18:38:10.029Z,13.6
2018-05-04T18:43:10.256Z,13.3
2018-05-04T18:48:10.514Z,13.3
2018-05-04T18:53:09.885Z,12.9
2018-05-04T18:58:10.256Z,12.9
2018-05-04T19:03:10.670Z,12.6
2018-05-04T19:08:10.441Z,12.6
2018-05-04T19:13:10.505Z,12.3
2018-05-04T19:18:09.955Z,12.3
2018-05-04T19:23:10.374Z,12
2018-05-04T19:28:10.619Z,12
2018-05-04T19:33:10.000Z,11.7
2018-05-04T19:38:10.236Z,11.7
2018-05-04T19:43:10.667Z,11.3
2018-05-04T19:48:10.074Z,11.3
2018-05-04T19:53:10.313Z,11
2018-05-04T19:58:10.540Z,11
2018-05-04T20:03:10.040Z,10.7
2018-05-04T20:08:10.577Z,10.7
2018-05-04T20:13:10.371Z,10.3
2018-05-04T20:18:09.876Z,10.3
2018-05-04T20:23:10.269Z,10.1
2018-05-04T20:28:10.024Z,10.1
2018-05-04T20:33:10.495Z,9.7
2018-05-04T20:38:09.755Z,9.7
2018-05-04T20:43:10.235Z,9.4
2018-05-04T20:48:10.682Z,9.4
2018-05-04T20:53:09.987Z,9.1
2018-05-04T20:58:10.631Z,9.1
2018-05-04T21:03:10.226Z,8.8
2018-05-04T21:08:10.612Z,8.8
2018-05-04T21:13:10.571Z,8.6
2018-05-04T21:18:09.956Z,8.6
2018-05-04T21:23:10.441Z,8.3
2018-05-04T21:28:10.832Z,8.3
2018-05-04T21:33:10.236Z,8.1
2018-05-04T21:38:10.213Z,8.1
2018-05-04T21:43:10.712Z,7.8
2018-05-04T21:48:10.048Z,7.8
2018-05-04T21:53:09.881Z,7.6
2018-05-04T21:58:10.341Z,7.6
2018-05-04T22:03:11.147Z,7.3
2018-05-04T22:08:09.913Z,7.3
2018-05-04T22:13:10.240Z,7.2
2018-05-04T22:18:10.485Z,7.2
2018-05-04T22:23:10.814Z,6.9
2018-05-04T22:28:10.171Z,6.9
2018-05-04T22:33:10.631Z,6.8
2018-05-04T22:38:09.976Z,6.8
2018-05-04T22:43:10.363Z,6.6
2018-05-04T22:48:10.811Z,6.6
2018-05-04T22:53:10.120Z,6.4
2018-05-04T22:58:10.728Z,6.4
2018-05-04T23:03:10.136Z,6.2
2018-05-04T23:08:10.358Z,6.2
2018-05-04T23:13:10.894Z,6.1
2018-05-04T23:18:10.772Z,6.1
2018-05-04T23:23:10.216Z,5.8
2018-05-04T23:28:10.589Z,5.8
2018-05-04T23:33:10.927Z,5.7
2018-05-04T23:38:10.285Z,5.7
2018-05-04T23:43:10.622Z,5.6
2018-05-04T23:48:11.030Z,5.6
2018-05-04T23:53:10.362Z,5.3
2018-05-04T23:58:10.601Z,5.3
